createdAt,value
2022-12-05T00:00:36.699Z,74.22
2022-12-05T00:04:41.203Z,74.37
2022-12-05T00:08:45.127Z,74.25
2022-12-05T00:12:48.801Z,74.27
2022-12-05T00:16:51.934Z,74.66
2022-12-05T00:20:56.898Z,75.73
2022-12-05T00:25:00.472Z,75.51
2022-12-05T00:29:03.607Z,75.35
2022-12-05T00:33:07.440Z,75.87
2022-12-05T00:37:12.494Z,76.35
2022-12-05T00:41:17.984Z,76.00
2022-12-05T00:45:21.543Z,75.75
2022-12-05T00:49:24.668Z,75.21
2022-12-05T00:53:29.586Z,75.45
2022-12-05T00:57:34.013Z,75.39
2022-12-05T01:01:39.734Z,75.03
2022-12-05T01:05:43.282Z,75.40
2022-12-05T01:09:48.514Z,75.11
2022-12-05T01:13:51.943Z,75.70
2022-12-05T01:17:55.599Z,75.34
2022-12-05T01:22:00.216Z,74.91
2022-12-05T01:26:07.970Z,75.24
2022-12-05T01:30:11.799Z,74.93
2022-12-05T01:34:17.804Z,74.66
2022-12-05T01:38:21.211Z,75.04
2022-12-05T01:42:26.685Z,74.62
2022-12-05T01:46:32.759Z,74.88
2022-12-05T01:50:36.742Z,74.10
2022-12-05T01:54:40.671Z,74.22
2022-12-05T01:58:47.554Z,73.82
2022-12-05T02:02:54.056Z,74.54
2022-12-05T02:06:57.723Z,74.10
2022-12-05T02:11:01.112Z,73.75
2022-12-05T02:15:23.593Z,73.75
2022-12-05T02:19:59.306Z,74.07
2022-12-05T02:24:27.204Z,73.40
2022-12-05T02:29:00.556Z,73.36
2022-12-05T02:33:14.601Z,73.79
2022-12-05T02:37:24.714Z,74.29
2022-12-05T02:41:34.045Z,74.42
2022-12-05T02:45:41.482Z,74.92
2022-12-05T02:49:46.802Z,75.10
2022-12-05T02:53:52.108Z,75.58
2022-12-05T02:58:00.444Z,75.19
2022-12-05T03:02:03.997Z,75.58
2022-12-05T03:06:15.449Z,75.35
2022-12-05T03:10:23.226Z,75.37
2022-12-05T03:14:30.262Z,75.49
2022-12-05T03:18:39.293Z,74.84
2022-12-05T03:22:48.423Z,75.14
2022-12-05T03:27:03.300Z,74.55
2022-12-05T03:31:12.618Z,74.17
2022-12-05T03:35:24.957Z,74.23
2022-12-05T03:39:34.527Z,74.18
2022-12-05T03:43:46.176Z,73.99
2022-12-05T03:47:52.904Z,74.36
2022-12-05T03:52:02.112Z,74.53
2022-12-05T03:56:12.302Z,74.38
2022-12-05T04:00:19.581Z,73.97
2022-12-05T04:04:27.554Z,73.41
2022-12-05T04:08:35.137Z,73.33
2022-12-05T04:12:43.352Z,73.19
2022-12-05T04:17:04.978Z,73.24
2022-12-05T04:21:26.260Z,73.10
2022-12-05T04:25:38.547Z,73.06
2022-12-05T04:29:52.459Z,73.21
2022-12-05T04:34:00.352Z,72.78
2022-12-05T04:38:08.577Z,72.59
2022-12-05T04:42:16.316Z,72.96
2022-12-05T04:46:24.157Z,72.47
2022-12-05T04:50:31.382Z,72.29
2022-12-05T04:54:39.618Z,72.61
2022-12-05T04:58:43.273Z,72.92
2022-12-05T05:02:52.277Z,72.95
2022-12-05T05:06:55.893Z,72.83
2022-12-05T05:11:14.518Z,73.11
2022-12-05T05:15:18.232Z,72.77
2022-12-05T05:19:23.285Z,72.73
2022-12-05T05:23:29.709Z,72.43
2022-12-05T05:27:32.663Z,72.92
2022-12-05T05:31:36.833Z,72.65
2022-12-05T05:35:41.697Z,72.59
2022-12-05T05:39:45.489Z,73.03
2022-12-05T05:43:49.394Z,72.76
2022-12-05T05:47:52.500Z,73.22
2022-12-05T05:51:57.431Z,72.61
2022-12-05T05:56:04.743Z,72.95
2022-12-05T06:00:09.832Z,72.99
2022-12-05T06:04:12.830Z,72.70
2022-12-05T06:08:17.758Z,72.79
2022-12-05T06:12:21.382Z,73.13
2022-12-05T06:16:25.800Z,72.47
2022-12-05T06:20:29.420Z,72.77
2022-12-05T06:24:34.012Z,72.96
2022-12-05T06:28:37.795Z,72.14
2022-12-05T06:32:42.065Z,72.35
2022-12-05T06:36:46.324Z,72.43
2022-12-05T06:40:50.700Z,72.39
2022-12-05T06:44:54.313Z,71.87
2022-12-05T06:48:58.980Z,72.01
2022-12-05T06:53:02.824Z,72.28
2022-12-05T06:57:07.805Z,72.08
2022-12-05T07:01:31.345Z,72.19
2022-12-05T07:05:35.464Z,72.37
2022-12-05T07:09:49.060Z,71.92
2022-12-05T07:13:54.265Z,72.56
2022-12-05T07:17:57.459Z,72.20
2022-12-05T07:22:00.525Z,72.33
2022-12-05T07:26:07.917Z,72.00
2022-12-05T07:30:13.156Z,72.04
2022-12-05T07:34:16.830Z,72.44
2022-12-05T07:38:19.958Z,71.91
2022-12-05T07:42:23.584Z,72.18
2022-12-05T07:46:30.270Z,72.13
2022-12-05T07:50:33.923Z,71.63
2022-12-05T07:54:37.149Z,72.07
2022-12-05T07:58:40.788Z,72.10
2022-12-05T08:02:46.140Z,71.67
2022-12-05T08:06:49.506Z,71.48
2022-12-05T08:10:53.431Z,71.42
2022-12-05T08:14:57.365Z,71.81
2022-12-05T08:19:04.012Z,71.80
2022-12-05T08:23:07.579Z,71.77
2022-12-05T08:27:10.858Z,72.06
2022-12-05T08:31:16.529Z,71.88
2022-12-05T08:35:21.534Z,72.25
2022-12-05T08:39:24.851Z,71.86
2022-12-05T08:43:28.404Z,71.85
2022-12-05T08:47:32.589Z,72.57
2022-12-05T08:51:37.882Z,72.51
2022-12-05T08:55:41.619Z,72.84
2022-12-05T08:59:47.230Z,72.61
2022-12-05T09:03:50.947Z,72.42
2022-12-05T09:07:55.835Z,72.40
2022-12-05T09:12:00.878Z,72.64
2022-12-05T09:16:09.040Z,73.08
2022-12-05T09:20:14.523Z,72.29
2022-12-05T09:24:19.225Z,72.83
2022-12-05T09:28:24.154Z,72.55
2022-12-05T09:32:28.297Z,72.32
2022-12-05T09:36:33.597Z,71.62
2022-12-05T09:40:43.608Z,71.79
2022-12-05T09:45:00.906Z,72.25
2022-12-05T09:49:05.871Z,72.15
2022-12-05T09:53:16.405Z,72.25
2022-12-05T09:57:33.859Z,72.25
2022-12-05T10:01:43.184Z,72.32
2022-12-05T10:05:52.063Z,72.19
2022-12-05T10:10:04.782Z,72.19
2022-12-05T10:14:25.119Z,72.01
2022-12-05T10:18:38.851Z,71.96
2022-12-05T10:22:49.319Z,71.84
2022-12-05T10:26:57.381Z,72.10
2022-12-05T10:31:07.238Z,71.71
2022-12-05T10:35:18.877Z,72.00
2022-12-05T10:39:22.696Z,71.80
2022-12-05T10:43:29.447Z,71.70
2022-12-05T10:47:35.058Z,72.22
2022-12-05T10:51:39.368Z,72.55
2022-12-05T10:56:06.371Z,71.83
2022-12-05T11:00:15.929Z,72.05
2022-12-05T11:04:28.201Z,72.19
2022-12-05T11:09:02.969Z,72.10
2022-12-05T11:12:59.339Z,72.09
2022-12-05T11:17:04.948Z,72.41
2022-12-05T11:21:14.532Z,71.43
2022-12-05T11:25:26.544Z,71.74
2022-12-05T11:29:37.032Z,71.13
2022-12-05T11:33:41.428Z,70.67
2022-12-05T11:37:53.925Z,70.38
2022-12-05T11:46:58.420Z,70.11
2022-12-05T11:51:18.170Z,69.79
2022-12-05T11:55:28.852Z,69.97
2022-12-05T11:59:55.288Z,70.03
2022-12-05T12:04:26.056Z,70.69
2022-12-05T12:08:31.631Z,69.79
2022-12-05T12:12:48.956Z,69.04
2022-12-05T12:17:04.424Z,68.25
2022-12-05T12:21:19.862Z,68.90
2022-12-05T12:25:35.248Z,68.33
2022-12-05T12:30:01.974Z,69.39
2022-12-05T12:34:21.224Z,68.52
2022-12-05T12:38:46.879Z,68.06
2022-12-05T12:43:07.311Z,68.08
2022-12-05T12:47:19.967Z,68.05
2022-12-05T12:51:23.040Z,68.30
2022-12-05T12:55:33.433Z,68.07
2022-12-05T12:59:59.077Z,69.00
2022-12-05T13:04:13.158Z,68.99
2022-12-05T13:08:25.442Z,68.86
2022-12-05T13:12:31.620Z,68.71
2022-12-05T13:16:45.864Z,68.65
2022-12-05T13:20:54.431Z,68.45
2022-12-05T13:25:05.977Z,68.60
2022-12-05T13:29:22.769Z,68.47
2022-12-05T13:33:28.837Z,68.51
2022-12-05T13:37:51.564Z,68.50
2022-12-05T13:42:16.586Z,68.72
2022-12-05T13:46:27.840Z,68.95
2022-12-05T13:50:37.675Z,68.78
2022-12-05T13:54:47.875Z,69.10
2022-12-05T13:58:52.725Z,69.28
2022-12-05T14:02:59.094Z,69.50
2022-12-05T14:07:03.077Z,69.59
2022-12-05T14:11:13.103Z,69.74
2022-12-05T14:15:43.451Z,70.04
2022-12-05T14:20:01.867Z,69.76
2022-12-05T14:24:12.779Z,69.47
2022-12-05T14:28:38.150Z,68.95
2022-12-05T14:32:44.639Z,68.92
2022-12-05T14:37:06.663Z,69.42
2022-12-05T14:41:17.244Z,69.63
2022-12-05T14:45:30.545Z,69.42
2022-12-05T14:49:55.406Z,69.75
2022-12-05T14:54:04.566Z,69.42
2022-12-05T14:58:18.123Z,69.20
2022-12-05T15:02:28.896Z,69.61
2022-12-05T15:06:35.227Z,69.81
2022-12-05T15:10:41.834Z,69.90
2022-12-05T15:14:51.793Z,69.94
2022-12-05T15:19:00.296Z,69.93
2022-12-05T15:23:04.073Z,69.80
2022-12-05T15:27:11.764Z,70.20
2022-12-05T15:31:15.987Z,69.58
2022-12-05T15:35:24.053Z,69.66
2022-12-05T15:39:28.791Z,69.91
2022-12-05T15:43:33.865Z,69.91
2022-12-05T15:47:37.375Z,69.82
2022-12-05T15:51:42.523Z,69.41
2022-12-05T15:55:50.587Z,69.83
2022-12-05T15:59:58.342Z,69.96
2022-12-05T16:04:06.868Z,70.50
2022-12-05T16:08:11.476Z,70.19
2022-12-05T16:12:24.852Z,69.75
2022-12-05T16:16:32.628Z,70.23
2022-12-05T16:20:37.735Z,70.11
2022-12-05T16:24:46.448Z,70.08
2022-12-05T16:29:00.790Z,70.51
2022-12-05T16:33:07.418Z,70.29
2022-12-05T16:37:20.327Z,70.69
2022-12-05T16:41:37.332Z,70.83
2022-12-05T16:45:42.270Z,70.59
2022-12-05T16:49:47.258Z,70.51
2022-12-05T16:53:52.661Z,70.43
2022-12-05T16:57:57.611Z,71.28
2022-12-05T17:02:02.528Z,70.76
2022-12-05T17:06:07.618Z,71.15
2022-12-05T17:10:11.482Z,70.82
2022-12-05T17:14:19.120Z,70.83
2022-12-05T17:18:29.605Z,71.15
2022-12-05T17:22:35.003Z,71.16
2022-12-05T17:26:38.045Z,71.31
2022-12-05T17:30:43.302Z,71.41
2022-12-05T17:34:46.855Z,71.66
2022-12-05T17:38:50.928Z,71.21
2022-12-05T17:42:54.572Z,71.32
2022-12-05T17:47:04.475Z,71.40
2022-12-05T17:51:13.660Z,71.66
2022-12-05T17:55:20.560Z,71.30
2022-12-05T17:59:23.630Z,71.42
2022-12-05T18:03:28.821Z,71.47
2022-12-05T18:07:32.795Z,71.91
2022-12-05T18:11:36.767Z,71.41
2022-12-05T18:20:06.615Z,70.35
2022-12-05T18:24:10.217Z,70.51
2022-12-05T18:28:17.826Z,69.98
2022-12-05T18:32:26.871Z,70.21
2022-12-05T18:36:32.562Z,69.78
2022-12-05T18:40:41.159Z,69.84
2022-12-05T18:44:47.621Z,69.60
2022-12-05T18:48:53.341Z,70.01
2022-12-05T18:52:58.607Z,70.23
2022-12-05T18:57:02.191Z,70.50
2022-12-05T19:01:08.246Z,71.27
2022-12-05T19:05:12.403Z,70.97
2022-12-05T19:09:24.611Z,71.67
2022-12-05T19:13:30.334Z,71.81
2022-12-05T19:22:02.758Z,72.39
2022-12-05T19:26:10.284Z,72.03
2022-12-05T19:30:16.491Z,72.16
2022-12-05T19:34:20.294Z,72.03
2022-12-05T19:38:24.188Z,72.55
2022-12-05T19:42:29.686Z,72.46
2022-12-05T19:46:35.170Z,73.09
2022-12-05T19:50:38.830Z,73.34
2022-12-05T19:54:42.332Z,72.87
2022-12-05T19:58:48.516Z,72.88
2022-12-05T20:02:51.616Z,73.03
2022-12-05T20:06:55.354Z,73.36
2022-12-05T20:10:58.712Z,72.64
2022-12-05T20:15:04.303Z,73.06
2022-12-05T20:19:16.676Z,73.27
2022-12-05T20:23:21.175Z,72.87
2022-12-05T20:27:25.877Z,73.10
2022-12-05T20:31:37.460Z,72.55
2022-12-05T20:35:42.198Z,72.65
2022-12-05T20:39:46.525Z,72.33
2022-12-05T20:43:55.913Z,72.51
